Time;durP1;ratioP1;P1;durP2;ratioP2;P2;SDS_P1;SDS_P2;PMS_P1;PMS_P2;Temp;Humidity;BMP_temperature;BMP_pressure;BME280_temperature;BME280_humidity;BME280_pressure;Samples;Min_cycle;Max_cycle;Signal;HPM_P1;HPM_P2
2021/12/04 00:02:00;;;;;;;2.78;1.50;;;;;;;;;;5083576;28;20411;-66
2021/12/04 00:04:32;;;;;;;2.50;1.17;;;;;;;;;;5071654;28;20461;-67
2021/12/04 00:07:01;;;;;;;4.82;1.27;;;;;;;;;;5085615;28;20058;-67
2021/12/04 00:09:30;;;;;;;1.67;0.98;;;;;;;;;;5088654;28;20351;-67
2021/12/04 00:12:00;;;;;;;4.60;1.88;;;;;;;;;;5083629;28;20220;-67
2021/12/04 00:14:28;;;;;;;1.92;1.30;;;;;;;;;;5069456;28;20369;-67
2021/12/04 00:16:57;;;;;;;1.77;1.17;;;;;;;;;;5084880;28;20515;-66
2021/12/04 00:19:26;;;;;;;3.85;1.70;;;;;;;;;;5082620;28;20517;-68
2021/12/04 00:21:56;;;;;;;2.83;1.17;;;;;;;;;;5087546;28;20558;-67
2021/12/04 00:24:24;;;;;;;1.58;1.25;;;;;;;;;;5086514;28;20143;-67
2021/12/04 00:26:53;;;;;;;1.70;1.10;;;;;;;;;;5085052;28;20147;-67
2021/12/04 00:29:22;;;;;;;4.57;1.48;;;;;;;;;;5083982;28;20551;-67
2021/12/04 00:31:54;;;;;;;1.90;1.20;;;;;;;;;;5085835;28;20139;-67
2021/12/04 00:34:23;;;;;;;2.33;1.05;;;;;;;;;;5082885;28;20048;-67
2021/12/04 00:50:42;;;;;;;1.08;0.90;;;;;;;;;;5078304;28;20124;-67
2021/12/04 00:53:10;;;;;;;2.30;1.30;;;;;;;;;;5085889;28;20127;-67
2021/12/04 00:55:38;;;;;;;2.03;1.15;;;;;;;;;;5085205;28;20596;-67
2021/12/04 00:58:08;;;;;;;1.52;0.98;;;;;;;;;;5086433;28;20119;-67
2021/12/04 01:00:36;;;;;;;1.50;0.88;;;;;;;;;;5085340;28;20083;-67
2021/12/04 01:03:04;;;;;;;2.38;1.20;;;;;;;;;;5087334;28;20052;-67
2021/12/04 01:05:33;;;;;;;2.25;0.90;;;;;;;;;;5087321;28;20052;-67
2021/12/04 01:08:01;;;;;;;1.45;1.00;;;;;;;;;;5087792;28;20048;-67
2021/12/04 01:10:30;;;;;;;2.78;0.90;;;;;;;;;;5089431;28;20567;-67
2021/12/04 01:13:00;;;;;;;3.05;1.20;;;;;;;;;;5083846;28;20078;-67
2021/12/04 01:15:30;;;;;;;1.30;1.00;;;;;;;;;;5080109;28;20075;-67
2021/12/04 01:17:58;;;;;;;4.50;1.25;;;;;;;;;;5091146;28;20527;-67
2021/12/04 01:20:26;;;;;;;1.23;0.70;;;;;;;;;;5087776;28;20130;-66
2021/12/04 01:22:55;;;;;;;2.63;0.90;;;;;;;;;;5090976;28;20063;-67
2021/12/04 01:25:39;;;;;;;1.86;0.90;;;;;;;;;;4526747;28;10001925;-67
2021/12/04 01:28:08;;;;;;;1.50;0.90;;;;;;;;;;1382736;28;10002137;-67
2021/12/04 01:30:37;;;;;;;1.73;1.00;;;;;;;;;;5030208;28;20049;-67
2021/12/04 01:33:06;;;;;;;2.20;1.08;;;;;;;;;;5027021;28;20041;-68
2021/12/04 01:35:34;;;;;;;1.58;0.95;;;;;;;;;;5024494;28;20053;-68
2021/12/04 01:38:02;;;;;;;2.80;1.05;;;;;;;;;;5029797;28;20049;-68
2021/12/04 01:40:31;;;;;;;1.85;1.13;;;;;;;;;;5030994;28;20136;-67
2021/12/04 01:42:59;;;;;;;2.47;1.00;;;;;;;;;;5025819;28;20041;-67
2021/12/04 01:45:28;;;;;;;1.60;0.88;;;;;;;;;;5029282;28;20076;-67
2021/12/04 01:48:00;;;;;;;0.70;0.63;;;;;;;;;;5030573;28;20049;-67
2021/12/04 01:50:29;;;;;;;1.27;1.00;;;;;;;;;;5025432;28;20050;-67
2021/12/04 01:52:59;;;;;;;1.58;1.02;;;;;;;;;;5029342;28;20072;-67
2021/12/04 01:55:28;;;;;;;2.22;0.93;;;;;;;;;;5029215;28;20525;-67
2021/12/04 01:57:57;;;;;;;2.55;1.10;;;;;;;;;;5022819;28;20057;-68
2021/12/04 02:00:25;;;;;;;2.75;1.02;;;;;;;;;;5026923;28;20481;-67
2021/12/04 02:02:54;;;;;;;1.40;0.80;;;;;;;;;;5023745;28;20300;-67
2021/12/04 02:05:23;;;;;;;2.08;0.95;;;;;;;;;;5023954;28;20050;-66
2021/12/04 02:07:52;;;;;;;2.35;1.15;;;;;;;;;;5024032;28;20049;-67
2021/12/04 02:10:20;;;;;;;1.42;1.00;;;;;;;;;;5024324;28;20050;-67
2021/12/04 02:12:49;;;;;;;1.85;1.00;;;;;;;;;;5022481;28;20041;-68
2021/12/04 02:15:18;;;;;;;1.10;0.80;;;;;;;;;;5024210;28;20166;-67
2021/12/04 02:17:46;;;;;;;2.40;0.90;;;;;;;;;;5026902;28;20049;-68
2021/12/04 02:20:18;;;;;;;1.38;0.80;;;;;;;;;;5025956;28;20485;-67
2021/12/04 02:22:47;;;;;;;1.52;0.77;;;;;;;;;;5025439;28;20493;-67
2021/12/04 02:25:15;;;;;;;2.40;0.95;;;;;;;;;;5025520;28;20048;-67
2021/12/04 02:27:45;;;;;;;2.42;1.20;;;;;;;;;;5022457;28;20416;-67
2021/12/04 02:30:14;;;;;;;1.17;0.95;;;;;;;;;;5024930;28;20049;-64
2021/12/04 02:32:43;;;;;;;2.25;0.80;;;;;;;;;;5022544;28;20175;-66
2021/12/04 02:35:12;;;;;;;0.98;0.60;;;;;;;;;;5026580;28;20168;-66
2021/12/04 02:37:42;;;;;;;3.80;1.00;;;;;;;;;;5023376;28;20057;-66
2021/12/04 02:40:12;;;;;;;0.82;0.77;;;;;;;;;;5022456;28;20414;-65
2021/12/04 02:42:41;;;;;;;2.25;1.00;;;;;;;;;;5023047;28;20045;-66
2021/12/04 02:45:10;;;;;;;3.08;0.70;;;;;;;;;;5023307;28;20509;-66
2021/12/04 02:47:39;;;;;;;1.38;0.80;;;;;;;;;;5025886;28;20037;-66
2021/12/04 02:50:09;;;;;;;1.52;0.90;;;;;;;;;;5025648;28;20398;-66
2021/12/04 02:52:38;;;;;;;1.17;0.88;;;;;;;;;;5025962;28;20139;-66
2021/12/04 02:55:08;;;;;;;1.83;1.00;;;;;;;;;;5023566;28;21398;-67
2021/12/04 02:57:41;;;;;;;1.50;0.70;;;;;;;;;;5024937;28;20055;-65
2021/12/04 03:00:11;;;;;;;1.85;0.95;;;;;;;;;;5024823;28;20152;-66
2021/12/04 03:02:39;;;;;;;2.28;1.15;;;;;;;;;;5024599;28;20485;-65
2021/12/04 03:05:09;;;;;;;3.25;1.30;;;;;;;;;;5027735;28;20129;-66
2021/12/04 03:07:37;;;;;;;2.08;0.80;;;;;;;;;;5030760;28;20041;-66
2021/12/04 03:10:08;;;;;;;1.10;0.70;;;;;;;;;;5029498;28;20079;-66
2021/12/04 03:12:37;;;;;;;2.60;1.15;;;;;;;;;;5028926;28;20511;-66
2021/12/04 03:15:05;;;;;;;2.70;0.85;;;;;;;;;;5019653;28;20041;-66
2021/12/04 03:17:34;;;;;;;1.88;1.15;;;;;;;;;;5025835;28;20092;-66
2021/12/04 03:20:03;;;;;;;1.00;0.68;;;;;;;;;;5028300;28;20065;-65
2021/12/04 03:22:31;;;;;;;2.08;1.10;;;;;;;;;;5027137;28;20152;-66
2021/12/04 03:24:59;;;;;;;1.88;0.77;;;;;;;;;;5028995;28;20057;-65
2021/12/04 03:27:31;;;;;;;0.90;0.80;;;;;;;;;;5029153;28;20124;-65
2021/12/04 03:30:03;;;;;;;1.42;1.05;;;;;;;;;;5031317;28;20072;-66
2021/12/04 03:40:02;;;;;;;1.05;0.77;;;;;;;;;;4998069;28;20050;-67
2021/12/04 03:41:06;;;;;;;3.70;0.90;;;;;;;;;;5023780;28;20124;-66
2021/12/04 03:43:36;;;;;;;0.95;0.77;;;;;;;;;;5026491;28;20615;-66
2021/12/04 03:46:10;;;;;;;1.70;0.85;;;;;;;;;;5027509;28;20045;-65
2021/12/04 03:48:51;;;;;;;1.35;0.90;;;;;;;;;;5026503;28;20075;-65
2021/12/04 03:51:20;;;;;;;1.30;0.93;;;;;;;;;;5026176;28;20481;-66
2021/12/04 03:53:48;;;;;;;3.50;1.15;;;;;;;;;;5028419;28;20141;-66
2021/12/04 03:56:21;;;;;;;2.17;0.73;;;;;;;;;;5025069;28;20083;-66
2021/12/04 03:58:50;;;;;;;1.85;1.00;;;;;;;;;;5026950;28;20072;-65
2021/12/04 04:01:19;;;;;;;1.50;0.80;;;;;;;;;;5027612;28;20061;-68
2021/12/04 04:03:48;;;;;;;3.33;1.10;;;;;;;;;;5022785;28;20050;-66
2021/12/04 04:06:16;;;;;;;6.18;0.85;;;;;;;;;;5026420;28;20046;-67
2021/12/04 04:08:45;;;;;;;0.93;0.80;;;;;;;;;;5026602;28;20132;-66
2021/12/04 04:11:13;;;;;;;1.92;1.00;;;;;;;;;;5027631;28;20041;-67
2021/12/04 04:13:43;;;;;;;1.30;0.70;;;;;;;;;;5027694;28;20490;-66
2021/12/04 04:16:14;;;;;;;1.23;0.65;;;;;;;;;;5028118;28;20060;-67
2021/12/04 04:18:43;;;;;;;1.40;0.70;;;;;;;;;;5027630;28;20061;-67
2021/12/04 04:21:11;;;;;;;2.38;1.00;;;;;;;;;;5026123;28;20112;-66
2021/12/04 04:23:39;;;;;;;0.95;0.85;;;;;;;;;;5028311;28;20135;-66
2021/12/04 04:26:07;;;;;;;4.47;1.15;;;;;;;;;;5023499;28;20404;-66
2021/12/04 04:28:36;;;;;;;4.07;1.02;;;;;;;;;;5025402;28;20087;-66
2021/12/04 04:31:08;;;;;;;1.60;0.70;;;;;;;;;;5027287;28;20537;-66
2021/12/04 04:33:40;;;;;;;2.22;0.88;;;;;;;;;;5026169;28;20056;-67
2021/12/04 04:36:19;;;;;;;3.00;1.23;;;;;;;;;;5023931;28;20046;-67
2021/12/04 04:38:58;;;;;;;1.67;0.88;;;;;;;;;;5029612;28;20133;-67
2021/12/04 04:58:22;;;;;;;1.02;0.90;;;;;;;;;;5030786;28;20136;-67
2021/12/04 05:01:12;;;;;;;1.63;0.65;;;;;;;;;;5031327;28;20112;-66
2021/12/04 05:12:11;;;;;;;5.20;1.00;;;;;;;;;;5029688;28;20561;-65
2021/12/04 05:14:42;;;;;;;1.20;0.80;;;;;;;;;;5033082;28;20132;-66
2021/12/04 05:17:13;;;;;;;2.90;0.80;;;;;;;;;;5032068;28;20057;-66
2021/12/04 05:19:43;;;;;;;2.75;0.93;;;;;;;;;;5030639;28;20227;-68
2021/12/04 05:22:14;;;;;;;0.95;0.70;;;;;;;;;;5028833;28;20140;-66
2021/12/04 05:24:43;;;;;;;1.88;0.65;;;;;;;;;;5027396;28;20141;-66
2021/12/04 05:27:12;;;;;;;1.33;0.85;;;;;;;;;;5034217;28;20053;-67
2021/12/04 05:29:41;;;;;;;2.78;0.70;;;;;;;;;;5034550;28;20045;-66
2021/12/04 05:32:10;;;;;;;3.63;0.80;;;;;;;;;;5029187;28;20459;-67
2021/12/04 05:34:39;;;;;;;0.98;0.63;;;;;;;;;;5028585;28;20580;-66
2021/12/04 05:37:07;;;;;;;2.40;1.27;;;;;;;;;;5031447;28;20115;-66
2021/12/04 05:39:37;;;;;;;0.98;0.70;;;;;;;;;;5028270;28;20057;-66
2021/12/04 05:42:05;;;;;;;1.48;0.60;;;;;;;;;;5028163;28;20047;-67
2021/12/04 05:44:34;;;;;;;0.95;0.60;;;;;;;;;;5025273;28;20045;-66
2021/12/04 05:47:08;;;;;;;0.93;0.60;;;;;;;;;;5028405;28;20508;-67
2021/12/04 05:49:47;;;;;;;2.15;0.50;;;;;;;;;;5029046;28;20152;-66
2021/12/04 05:52:22;;;;;;;1.33;0.50;;;;;;;;;;5023117;28;20165;-66
2021/12/04 05:55:10;;;;;;;0.50;0.50;;;;;;;;;;5025355;28;20453;-67
2021/12/04 05:57:38;;;;;;;2.20;0.90;;;;;;;;;;5025743;28;20140;-66
2021/12/04 06:00:07;;;;;;;1.33;0.47;;;;;;;;;;5028466;28;20132;-66
2021/12/04 06:02:36;;;;;;;0.70;0.60;;;;;;;;;;5029742;28;20410;-66
2021/12/04 06:05:04;;;;;;;2.05;0.60;;;;;;;;;;5030401;28;20115;-66
2021/12/04 06:07:33;;;;;;;2.33;0.68;;;;;;;;;;5031103;28;20049;-65
2021/12/04 06:10:02;;;;;;;1.13;0.70;;;;;;;;;;5030991;28;20077;-66
2021/12/04 06:12:30;;;;;;;0.82;0.50;;;;;;;;;;5028166;28;20057;-66
2021/12/04 06:14:59;;;;;;;0.70;0.50;;;;;;;;;;5027339;28;20052;-66
2021/12/04 06:17:29;;;;;;;3.45;0.80;;;;;;;;;;5031176;28;20145;-66
2021/12/04 06:22:45;;;;;;;1.83;0.90;;;;;;;;;;5019565;28;20103;-66
2021/12/04 06:25:16;;;;;;;1.88;0.90;;;;;;;;;;5028575;28;20084;-66
2021/12/04 06:27:45;;;;;;;2.10;0.80;;;;;;;;;;5028615;28;20053;-67
2021/12/04 06:30:14;;;;;;;1.20;0.73;;;;;;;;;;5027845;28;20060;-66
2021/12/04 06:32:42;;;;;;;1.30;0.70;;;;;;;;;;5028861;28;20127;-66
2021/12/04 06:35:12;;;;;;;1.35;0.70;;;;;;;;;;5028279;28;20050;-66
2021/12/04 06:37:41;;;;;;;4.90;0.98;;;;;;;;;;5037641;28;20072;-66
2021/12/04 06:40:12;;;;;;;2.17;0.70;;;;;;;;;;5027961;28;20052;-66
2021/12/04 06:42:43;;;;;;;1.20;0.80;;;;;;;;;;5028650;28;20050;-67
2021/12/04 06:45:12;;;;;;;1.25;0.80;;;;;;;;;;5029122;28;20045;-66
2021/12/04 06:47:47;;;;;;;0.90;0.75;;;;;;;;;;5019849;28;20052;-66
2021/12/04 06:50:20;;;;;;;;;;;;;;;;;;5019491;28;20054;-67
2021/12/04 06:52:49;;;;;;;1.05;0.68;;;;;;;;;;5026837;28;19988;-67
2021/12/04 06:55:19;;;;;;;1.83;0.75;;;;;;;;;;5028222;28;20072;-66
2021/12/04 06:57:49;;;;;;;3.75;0.57;;;;;;;;;;5027366;28;20531;-66
2021/12/04 07:00:17;;;;;;;5.30;1.35;;;;;;;;;;5024440;28;20140;-66
2021/12/04 07:02:45;;;;;;;4.47;0.95;;;;;;;;;;5024536;28;20136;-66
2021/12/04 07:05:14;;;;;;;4.40;0.98;;;;;;;;;;5026777;28;20061;-66
2021/12/04 07:07:42;;;;;;;2.08;1.17;;;;;;;;;;5028110;28;20056;-66
2021/12/04 07:10:11;;;;;;;1.90;0.98;;;;;;;;;;5029181;28;20153;-66
2021/12/04 07:12:39;;;;;;;2.17;0.90;;;;;;;;;;5028202;28;20052;-66
2021/12/04 07:15:11;;;;;;;2.30;0.93;;;;;;;;;;5026496;28;20140;-66
2021/12/04 07:17:39;;;;;;;3.72;1.35;;;;;;;;;;5025886;28;20042;-66
2021/12/04 07:20:09;;;;;;;3.33;1.20;;;;;;;;;;5017751;28;20057;-66
2021/12/04 07:22:37;;;;;;;2.63;1.13;;;;;;;;;;5027124;28;20053;-66
2021/12/04 07:25:06;;;;;;;5.22;1.00;;;;;;;;;;5028181;28;20580;-66
2021/12/04 07:27:34;;;;;;;1.33;0.85;;;;;;;;;;5027158;28;20124;-66
2021/12/04 07:30:04;;;;;;;4.13;1.25;;;;;;;;;;5027549;28;20051;-66
2021/12/04 07:32:33;;;;;;;2.17;0.82;;;;;;;;;;5029102;28;20068;-66
2021/12/04 07:35:02;;;;;;;3.35;0.90;;;;;;;;;;5028447;28;20050;-66
2021/12/04 07:37:30;;;;;;;1.77;1.08;;;;;;;;;;5028596;28;20128;-66
2021/12/04 07:39:58;;;;;;;1.85;1.00;;;;;;;;;;5028833;28;20059;-66
2021/12/04 07:42:26;;;;;;;2.83;1.02;;;;;;;;;;5031444;28;20049;-66
2021/12/04 07:44:55;;;;;;;4.80;1.10;;;;;;;;;;5028847;28;20080;-66
2021/12/04 07:47:23;;;;;;;1.52;1.13;;;;;;;;;;5028791;28;20073;-66
2021/12/04 07:49:53;;;;;;;3.70;1.20;;;;;;;;;;5019534;28;20832;-66
2021/12/04 07:52:26;;;;;;;1.63;1.08;;;;;;;;;;5026923;28;20148;-67
2021/12/04 07:54:54;;;;;;;2.17;1.05;;;;;;;;;;5026566;28;20160;-66
2021/12/04 07:57:24;;;;;;;4.85;1.13;;;;;;;;;;5028254;28;20088;-66
2021/12/04 07:59:53;;;;;;;4.70;1.02;;;;;;;;;;5028369;28;20053;-66
2021/12/04 08:02:22;;;;;;;4.03;0.95;;;;;;;;;;5026938;28;20490;-66
2021/12/04 08:04:51;;;;;;;3.75;1.30;;;;;;;;;;5025671;28;20045;-66
2021/12/04 08:07:21;;;;;;;3.22;1.63;;;;;;;;;;5025110;28;20049;-66
2021/12/04 08:09:49;;;;;;;7.80;1.20;;;;;;;;;;5025536;28;20085;-66
2021/12/04 08:12:18;;;;;;;4.20;1.20;;;;;;;;;;5027020;28;20068;-67
2021/12/04 08:14:46;;;;;;;2.58;1.25;;;;;;;;;;5021770;28;20049;-66
2021/12/04 08:17:15;;;;;;;3.17;1.35;;;;;;;;;;5028536;28;20124;-66
2021/12/04 08:19:43;;;;;;;1.92;1.10;;;;;;;;;;5030267;28;20054;-66
2021/12/04 08:22:12;;;;;;;1.85;1.20;;;;;;;;;;5027950;28;20088;-66
2021/12/04 08:24:44;;;;;;;4.60;2.00;;;;;;;;;;5029279;28;20072;-65
2021/12/04 08:27:12;;;;;;;2.47;1.27;;;;;;;;;;5026657;28;20053;-66
2021/12/04 08:29:41;;;;;;;1.88;1.33;;;;;;;;;;5027531;28;20206;-66
2021/12/04 08:32:10;;;;;;;2.53;1.20;;;;;;;;;;5031254;28;20556;-66
2021/12/04 08:34:39;;;;;;;1.55;1.15;;;;;;;;;;5029123;28;20057;-66
2021/12/04 08:37:07;;;;;;;3.15;1.17;;;;;;;;;;5029231;28;20322;-66
2021/12/04 08:39:36;;;;;;;3.75;1.60;;;;;;;;;;5028603;28;20112;-66
2021/12/04 08:42:06;;;;;;;9.73;1.40;;;;;;;;;;5028970;28;20063;-66
2021/12/04 08:44:36;;;;;;;4.40;1.33;;;;;;;;;;5028685;28;20046;-66
2021/12/04 08:47:04;;;;;;;4.13;1.55;;;;;;;;;;5028478;28;20046;-65
2021/12/04 08:49:33;;;;;;;3.88;1.52;;;;;;;;;;5026511;28;20045;-66
2021/12/04 08:52:04;;;;;;;2.40;1.23;;;;;;;;;;5028826;28;20049;-66
2021/12/04 08:54:33;;;;;;;4.28;1.50;;;;;;;;;;5027478;28;20064;-66
2021/12/04 08:57:01;;;;;;;5.45;1.23;;;;;;;;;;5025497;28;20056;-66
2021/12/04 08:59:32;;;;;;;2.97;1.58;;;;;;;;;;5025824;28;20049;-66
2021/12/04 09:02:01;;;;;;;2.40;1.30;;;;;;;;;;5028826;28;20069;-66
2021/12/04 09:04:31;;;;;;;1.85;1.20;;;;;;;;;;5029595;28;20436;-67
2021/12/04 09:07:00;;;;;;;7.78;1.73;;;;;;;;;;5031074;28;20045;-66
2021/12/04 09:09:29;;;;;;;4.13;1.33;;;;;;;;;;5031085;28;20049;-66
2021/12/04 09:12:17;;;;;;;5.68;1.50;;;;;;;;;;5035813;28;20057;-66
2021/12/04 09:14:47;;;;;;;2.35;1.17;;;;;;;;;;5031266;28;20060;-66
2021/12/04 09:17:16;;;;;;;3.53;1.20;;;;;;;;;;5031417;28;20511;-66
2021/12/04 09:19:45;;;;;;;1.65;1.13;;;;;;;;;;5030958;28;20136;-66
2021/12/04 09:22:16;;;;;;;3.85;1.63;;;;;;;;;;5032264;28;20061;-66
2021/12/04 09:25:01;;;;;;;4.55;1.40;;;;;;;;;;5033737;28;20069;-66
2021/12/04 09:27:43;;;;;;;5.88;1.80;;;;;;;;;;5028396;28;20049;-66
2021/12/04 09:30:42;;;;;;;6.10;1.83;;;;;;;;;;5029717;28;20124;-67
2021/12/04 10:02:00;;;;;;;3.13;1.40;;;;;;;;;;5026342;28;20291;-66
2021/12/04 10:13:18;;;;;;;4.93;1.85;;;;;;;;;;5022526;28;20133;-66
2021/12/04 10:16:13;;;;;;;2.55;1.20;;;;;;;;;;5017697;28;20081;-66
2021/12/04 10:21:50;;;;;;;2.55;1.40;;;;;;;;;;4963478;28;20042;-67
2021/12/04 10:32:58;;;;;;;2.35;1.30;;;;;;;;;;5026487;28;20049;-66
2021/12/04 10:35:27;;;;;;;5.50;1.27;;;;;;;;;;5025953;28;20541;-66
2021/12/04 10:37:59;;;;;;;4.03;1.70;;;;;;;;;;5029268;28;20060;-66
2021/12/04 10:40:36;;;;;;;4.35;1.50;;;;;;;;;;5021968;28;20114;-66
2021/12/04 10:43:06;;;;;;;2.28;1.27;;;;;;;;;;5021734;28;20057;-67
2021/12/04 10:45:37;;;;;;;1.98;1.38;;;;;;;;;;5025343;28;20143;-67
2021/12/04 10:48:09;;;;;;;3.03;1.30;;;;;;;;;;5023193;28;20045;-66
2021/12/04 10:50:45;;;;;;;2.50;1.30;;;;;;;;;;5023294;28;20085;-66
2021/12/04 10:53:18;;;;;;;1.48;0.95;;;;;;;;;;5024546;28;20459;-66
2021/12/04 10:55:50;;;;;;;2.72;1.30;;;;;;;;;;5020994;28;20053;-66
2021/12/04 10:58:42;;;;;;;3.45;1.20;;;;;;;;;;5023910;28;20099;-66
2021/12/04 11:01:35;;;;;;;4.38;1.40;;;;;;;;;;5024213;28;20156;-66
2021/12/04 11:04:16;;;;;;;3.30;1.45;;;;;;;;;;5025104;28;20045;-66
2021/12/04 11:40:30;;;;;;;1.80;1.13;;;;;;;;;;5027241;28;20100;-65
2021/12/04 11:43:03;;;;;;;2.97;1.58;;;;;;;;;;5028093;28;20103;-65
2021/12/04 11:45:40;;;;;;;6.03;1.63;;;;;;;;;;5028212;28;20053;-66
2021/12/04 11:48:09;;;;;;;4.97;1.35;;;;;;;;;;5024640;28;20080;-65
2021/12/04 11:50:38;;;;;;;5.18;1.90;;;;;;;;;;5019850;28;20053;-67
2021/12/04 11:53:08;;;;;;;3.00;1.33;;;;;;;;;;5013820;28;20049;-65
2021/12/04 11:55:37;;;;;;;8.85;1.20;;;;;;;;;;5027269;28;20049;-66
2021/12/04 11:58:17;;;;;;;1.92;1.23;;;;;;;;;;5030927;28;20060;-66
2021/12/04 12:00:45;;;;;;;2.67;1.35;;;;;;;;;;5027135;28;20065;-66
2021/12/04 12:03:16;;;;;;;1.55;1.02;;;;;;;;;;5026765;28;20049;-66
2021/12/04 12:05:46;;;;;;;3.17;1.10;;;;;;;;;;5026869;28;20049;-66
2021/12/04 12:08:28;;;;;;;1.23;0.80;;;;;;;;;;5028364;28;20061;-66
2021/12/04 12:10:59;;;;;;;2.55;0.88;;;;;;;;;;5025929;28;20046;-66
2021/12/04 12:13:31;;;;;;;1.48;0.73;;;;;;;;;;5025524;28;20088;-67
2021/12/04 12:16:02;;;;;;;1.38;0.52;;;;;;;;;;5027483;28;20037;-67
2021/12/04 12:18:43;;;;;;;2.63;0.60;;;;;;;;;;5029368;28;20061;-68
2021/12/04 12:21:14;;;;;;;1.17;0.90;;;;;;;;;;5025464;28;20049;-67
2021/12/04 12:24:15;;;;;;;1.35;0.80;;;;;;;;;;5025253;28;20096;-66
2021/12/04 12:27:04;;;;;;;3.40;0.73;;;;;;;;;;5024531;28;20057;-66
2021/12/04 12:32:48;;;;;;;1.75;0.70;;;;;;;;;;5023634;28;20041;-65
2021/12/04 12:38:13;;;;;;;2.50;1.17;;;;;;;;;;5028312;28;20073;-65
2021/12/04 12:40:58;;;;;;;3.13;0.80;;;;;;;;;;5026489;28;20402;-65
2021/12/04 12:43:35;;;;;;;2.08;0.70;;;;;;;;;;5027926;28;20111;-65
2021/12/04 12:46:08;;;;;;;1.35;0.70;;;;;;;;;;5009031;28;20046;-65
2021/12/04 12:48:44;;;;;;;7.60;1.10;;;;;;;;;;5019745;28;20389;-65
2021/12/04 12:51:13;;;;;;;2.97;0.77;;;;;;;;;;5019171;28;20033;-65
2021/12/04 12:53:43;;;;;;;2.05;0.60;;;;;;;;;;5028321;28;20045;-65
2021/12/04 12:56:13;;;;;;;1.98;0.73;;;;;;;;;;5028265;28;20046;-65
2021/12/04 12:58:45;;;;;;;1.50;0.63;;;;;;;;;;5025826;28;20421;-65
2021/12/04 13:12:46;;;;;;;0.82;0.52;;;;;;;;;;5022789;28;20111;-65
2021/12/04 13:15:16;;;;;;;1.15;0.43;;;;;;;;;;5026109;28;20519;-65
2021/12/04 13:17:47;;;;;;;0.93;0.63;;;;;;;;;;5030716;28;20042;-65
2021/12/04 13:20:16;;;;;;;4.18;0.60;;;;;;;;;;5029703;28;20049;-65
2021/12/04 13:22:45;;;;;;;1.17;0.60;;;;;;;;;;5027364;28;20456;-65
2021/12/04 13:25:14;;;;;;;1.73;0.32;;;;;;;;;;5030083;28;20123;-65
2021/12/04 13:30:15;;;;;;;1.50;0.60;;;;;;;;;;5031401;28;20056;-65
2021/12/04 13:32:45;;;;;;;1.02;0.40;;;;;;;;;;5030025;28;20049;-65
2021/12/04 13:35:17;;;;;;;1.00;0.40;;;;;;;;;;5028587;28;20397;-65
2021/12/04 13:37:47;;;;;;;0.57;0.47;;;;;;;;;;5029877;28;20041;-65
2021/12/04 13:40:16;;;;;;;1.10;0.40;;;;;;;;;;5033021;28;20049;-65
2021/12/04 13:42:46;;;;;;;2.25;0.32;;;;;;;;;;5027378;28;20136;-65
2021/12/04 13:45:15;;;;;;;0.50;0.40;;;;;;;;;;5022820;28;20049;-65
2021/12/04 13:47:45;;;;;;;1.17;0.45;;;;;;;;;;5026918;28;20481;-65
2021/12/04 13:52:58;;;;;;;0.30;0.30;;;;;;;;;;5031923;28;20049;-65
2021/12/04 13:55:27;;;;;;;2.10;0.55;;;;;;;;;;5030513;28;20057;-66
2021/12/04 13:57:57;;;;;;;1.30;0.45;;;;;;;;;;5026587;28;20049;-65
2021/12/04 14:00:26;;;;;;;0.55;0.20;;;;;;;;;;5029822;28;20341;-65
2021/12/04 14:02:55;;;;;;;1.52;0.40;;;;;;;;;;5029500;28;20115;-66
2021/12/04 14:05:25;;;;;;;1.02;0.30;;;;;;;;;;5028929;28;20057;-65
2021/12/04 14:07:55;;;;;;;4.57;0.40;;;;;;;;;;5032323;28;20052;-65
2021/12/04 14:10:29;;;;;;;2.00;0.30;;;;;;;;;;5031093;28;20060;-66
2021/12/04 14:12:58;;;;;;;0.50;0.35;;;;;;;;;;5027132;28;20049;-65
2021/12/04 14:15:28;;;;;;;0.35;0.30;;;;;;;;;;5029585;28;20054;-65
2021/12/04 14:17:59;;;;;;;3.03;0.30;;;;;;;;;;5035567;28;20125;-65
2021/12/04 14:20:28;;;;;;;0.30;0.30;;;;;;;;;;5020789;28;20041;-65
2021/12/04 14:22:59;;;;;;;3.33;0.55;;;;;;;;;;5029837;28;20049;-65
2021/12/04 14:25:29;;;;;;;2.50;0.40;;;;;;;;;;5025484;28;20407;-66
2021/12/04 14:28:00;;;;;;;1.10;0.38;;;;;;;;;;5029888;28;20049;-65
2021/12/04 14:30:32;;;;;;;1.83;1.30;;;;;;;;;;5027736;28;20351;-65
2021/12/04 14:33:02;;;;;;;2.35;0.73;;;;;;;;;;5019540;28;20499;-65
2021/12/04 14:35:32;;;;;;;0.68;0.40;;;;;;;;;;5027579;28;20404;-65
2021/12/04 14:38:07;;;;;;;0.85;0.52;;;;;;;;;;5030569;28;20053;-64
2021/12/04 14:40:40;;;;;;;1.30;0.38;;;;;;;;;;5029671;28;20055;-65
2021/12/04 14:43:11;;;;;;;0.93;0.80;;;;;;;;;;5028856;28;20588;-65
2021/12/04 14:45:40;;;;;;;0.73;0.40;;;;;;;;;;5028845;28;20089;-64
2021/12/04 14:48:10;;;;;;;0.43;0.43;;;;;;;;;;5024088;28;20053;-65
2021/12/04 14:50:40;;;;;;;0.20;0.20;;;;;;;;;;5030121;28;20114;-65
2021/12/04 14:53:10;;;;;;;0.47;0.20;;;;;;;;;;5028152;28;20128;-65
2021/12/04 14:55:41;;;;;;;1.40;0.93;;;;;;;;;;5028931;28;20304;-65
2021/12/04 14:58:13;;;;;;;0.50;0.47;;;;;;;;;;5029725;28;20416;-64
2021/12/04 15:00:44;;;;;;;1.08;0.98;;;;;;;;;;5030292;28;20052;-65
2021/12/04 15:03:13;;;;;;;0.40;0.30;;;;;;;;;;5026676;28;20045;-65
2021/12/04 15:05:43;;;;;;;0.40;0.20;;;;;;;;;;5029153;28;20364;-65
2021/12/04 15:08:12;;;;;;;2.38;0.45;;;;;;;;;;5026744;28;20084;-65
2021/12/04 15:10:45;;;;;;;1.55;0.63;;;;;;;;;;5026131;28;20705;-64
2021/12/04 15:13:19;;;;;;;0.32;0.20;;;;;;;;;;5023689;28;20473;-65
2021/12/04 15:15:48;;;;;;;0.50;0.30;;;;;;;;;;5023881;28;20111;-65
2021/12/04 15:18:20;;;;;;;0.30;0.20;;;;;;;;;;5026263;28;20888;-66
2021/12/04 15:20:55;;;;;;;1.67;0.28;;;;;;;;;;5023874;28;20505;-65
2021/12/04 15:23:27;;;;;;;1.23;0.50;;;;;;;;;;5021998;28;20058;-65
2021/12/04 15:26:01;;;;;;;0.30;0.30;;;;;;;;;;5028089;28;20049;-65
2021/12/04 15:28:32;;;;;;;2.05;0.50;;;;;;;;;;5026777;28;20405;-65
2021/12/04 15:31:04;;;;;;;3.00;0.95;;;;;;;;;;5015666;28;20497;-65
2021/12/04 15:33:36;;;;;;;2.75;1.00;;;;;;;;;;5026534;28;20093;-65
2021/12/04 15:36:26;;;;;;;1.52;0.70;;;;;;;;;;5029328;28;20095;-65
2021/12/04 15:38:57;;;;;;;2.38;1.63;;;;;;;;;;5027849;28;20081;-65
2021/12/04 15:41:43;;;;;;;1.58;1.00;;;;;;;;;;5026923;28;20053;-66
2021/12/04 15:44:40;;;;;;;1.88;0.70;;;;;;;;;;5061764;28;20420;-65
2021/12/04 15:47:24;;;;;;;3.28;1.90;;;;;;;;;;5024808;28;20034;-66
2021/12/04 15:53:06;;;;;;;4.30;1.50;;;;;;;;;;5016426;28;20045;-66
2021/12/04 15:55:39;;;;;;;0.55;0.50;;;;;;;;;;5018713;28;20114;-67
2021/12/04 15:58:11;;;;;;;2.35;1.33;;;;;;;;;;5022162;28;20053;-65
2021/12/04 16:00:41;;;;;;;0.30;0.30;;;;;;;;;;5028604;28;20072;-65
2021/12/04 16:03:13;;;;;;;3.20;0.43;;;;;;;;;;5027662;28;20065;-65
2021/12/04 16:05:46;;;;;;;3.38;0.57;;;;;;;;;;5028125;28;20046;-65
2021/12/04 16:08:15;;;;;;;1.20;0.50;;;;;;;;;;5026124;28;20557;-65
2021/12/04 16:11:08;;;;;;;0.52;0.40;;;;;;;;;;5019463;28;20045;-65
2021/12/04 16:13:39;;;;;;;0.32;0.32;;;;;;;;;;5028931;28;20053;-65
2021/12/04 16:16:12;;;;;;;1.10;0.75;;;;;;;;;;5028186;28;20045;-66
2021/12/04 16:18:41;;;;;;;0.75;0.55;;;;;;;;;;5023696;28;20052;-66
2021/12/04 16:21:11;;;;;;;1.92;0.63;;;;;;;;;;5018402;28;20045;-65
2021/12/04 16:23:40;;;;;;;1.35;0.55;;;;;;;;;;5024977;28;20092;-65
2021/12/04 16:26:11;;;;;;;0.80;0.50;;;;;;;;;;5022132;28;20397;-66
2021/12/04 16:31:34;;;;;;;0.77;0.47;;;;;;;;;;5016582;28;20052;-65
2021/12/04 16:35:03;;;;;;;0.63;0.30;;;;;;;;;;5025496;28;20511;-65
2021/12/04 16:37:05;;;;;;;0.70;0.47;;;;;;;;;;5026215;28;20049;-66
2021/12/04 16:39:34;;;;;;;0.45;0.35;;;;;;;;;;5025338;28;20046;-66
2021/12/04 16:42:03;;;;;;;1.02;0.45;;;;;;;;;;5025518;28;20111;-65
2021/12/04 16:44:33;;;;;;;1.25;0.63;;;;;;;;;;5028983;28;20547;-66
2021/12/04 16:47:02;;;;;;;0.30;0.30;;;;;;;;;;5030908;28;20057;-65
2021/12/04 16:49:31;;;;;;;1.17;0.70;;;;;;;;;;5027121;28;20132;-66
2021/12/04 17:00:21;;;;;;;1.08;0.77;;;;;;;;;;5028002;28;20045;-66
2021/12/04 17:02:50;;;;;;;0.77;0.40;;;;;;;;;;5026514;28;20049;-66
2021/12/04 17:05:20;;;;;;;0.60;0.38;;;;;;;;;;5024652;28;20558;-66
2021/12/04 17:07:49;;;;;;;1.08;0.50;;;;;;;;;;5028202;28;20047;-66
2021/12/04 17:10:18;;;;;;;0.80;0.30;;;;;;;;;;5028508;28;20454;-66
2021/12/04 17:12:48;;;;;;;0.75;0.38;;;;;;;;;;5023166;28;20208;-66
2021/12/04 17:15:17;;;;;;;0.32;0.32;;;;;;;;;;5024746;28;20045;-67
2021/12/04 17:17:47;;;;;;;0.85;0.40;;;;;;;;;;5025361;28;20440;-65
2021/12/04 17:20:18;;;;;;;0.43;0.28;;;;;;;;;;5027761;28;20056;-65
2021/12/04 17:22:47;;;;;;;0.63;0.30;;;;;;;;;;5032510;28;20195;-70
2021/12/04 17:25:16;;;;;;;1.65;0.63;;;;;;;;;;5027332;28;20053;-66
2021/12/04 17:27:44;;;;;;;0.73;0.32;;;;;;;;;;5028380;28;20056;-65
2021/12/04 17:30:15;;;;;;;1.92;0.30;;;;;;;;;;5027111;28;20072;-65
2021/12/04 17:32:44;;;;;;;0.47;0.30;;;;;;;;;;5027549;28;20045;-64
2021/12/04 17:35:16;;;;;;;0.80;0.52;;;;;;;;;;5025452;28;20045;-65
2021/12/04 17:37:45;;;;;;;1.10;0.77;;;;;;;;;;5027899;28;20366;-66
2021/12/04 17:40:14;;;;;;;1.08;0.63;;;;;;;;;;5029380;28;20124;-64
2021/12/04 17:42:42;;;;;;;0.80;0.50;;;;;;;;;;5026788;28;20131;-66
2021/12/04 17:45:12;;;;;;;0.70;0.50;;;;;;;;;;5028489;28;20092;-65
2021/12/04 17:47:43;;;;;;;0.68;0.45;;;;;;;;;;5027779;28;20115;-66
2021/12/04 17:50:12;;;;;;;0.88;0.47;;;;;;;;;;5028576;28;20056;-66
2021/12/04 17:52:42;;;;;;;1.00;0.70;;;;;;;;;;5026116;28;20081;-65
2021/12/04 17:55:12;;;;;;;2.58;1.08;;;;;;;;;;5030050;28;20468;-66